Welcome to the New NWS' Forecast!
Most changes are behind the scenes, but click here for differences you might notice.

Terminal Aerodrome Forecast (TAF)

Issued by National Weather Service (NWS)

                            
334 
FTUS42 KKEY 151447 AAA
TAFEYW
TAF AMD
KEYW 151447Z 1515/1612 12011KT P6SM SCT025 SCT250
     FM151630 13011KT P6SM VCSH SCT025 SCT100 SCT250
      TEMPO 1517/1519 14015G25KT 3SM SHRA BKN040=